sensor_id;sensor_type;location;lat;lon;timestamp;P1;durP1;ratioP1;P2;durP2;ratioP2
13493;SDS011;6819;50.886;4.332;2023-08-21T00:00:03;6.88;;;1.77;;
13493;SDS011;6819;50.886;4.332;2023-08-21T00:02:30;8.88;;;1.90;;
13493;SDS011;6819;50.886;4.332;2023-08-21T00:04:56;7.40;;;1.80;;
13493;SDS011;6819;50.886;4.332;2023-08-21T00:07:22;6.10;;;1.80;;
13493;SDS011;6819;50.886;4.332;2023-08-21T00:09:48;7.45;;;1.90;;
13493;SDS011;6819;50.886;4.332;2023-08-21T00:12:15;7.97;;;2.10;;
13493;SDS011;6819;50.886;4.332;2023-08-21T00:14:41;9.48;;;2.47;;
13493;SDS011;6819;50.886;4.332;2023-08-21T00:17:07;6.50;;;1.80;;
13493;SDS011;6819;50.886;4.332;2023-08-21T00:19:34;6.78;;;1.90;;
13493;SDS011;6819;50.886;4.332;2023-08-21T00:22:00;4.25;;;1.70;;
13493;SDS011;6819;50.886;4.332;2023-08-21T00:24:26;5.65;;;2.00;;
13493;SDS011;6819;50.886;4.332;2023-08-21T00:26:52;6.63;;;1.70;;
13493;SDS011;6819;50.886;4.332;2023-08-21T00:29:18;4.85;;;2.53;;
13493;SDS011;6819;50.886;4.332;2023-08-21T00:31:44;6.15;;;1.88;;
13493;SDS011;6819;50.886;4.332;2023-08-21T00:34:10;7.68;;;1.92;;
13493;SDS011;6819;50.886;4.332;2023-08-21T00:36:36;7.63;;;1.70;;
13493;SDS011;6819;50.886;4.332;2023-08-21T00:39:02;7.90;;;2.13;;
13493;SDS011;6819;50.886;4.332;2023-08-21T00:41:28;9.55;;;2.35;;
13493;SDS011;6819;50.886;4.332;2023-08-21T00:43:54;4.75;;;1.63;;
13493;SDS011;6819;50.886;4.332;2023-08-21T00:46:20;5.38;;;1.70;;
13493;SDS011;6819;50.886;4.332;2023-08-21T00:48:47;8.43;;;2.00;;
13493;SDS011;6819;50.886;4.332;2023-08-21T00:51:13;3.85;;;1.60;;
13493;SDS011;6819;50.886;4.332;2023-08-21T00:53:40;9.07;;;2.50;;
13493;SDS011;6819;50.886;4.332;2023-08-21T00:56:07;3.50;;;1.77;;
13493;SDS011;6819;50.886;4.332;2023-08-21T00:58:33;6.68;;;1.83;;
13493;SDS011;6819;50.886;4.332;2023-08-21T01:00:59;7.32;;;1.75;;
13493;SDS011;6819;50.886;4.332;2023-08-21T01:03:25;5.72;;;2.00;;
13493;SDS011;6819;50.886;4.332;2023-08-21T01:05:51;5.97;;;2.28;;
13493;SDS011;6819;50.886;4.332;2023-08-21T01:08:31;9.40;;;2.03;;
13493;SDS011;6819;50.886;4.332;2023-08-21T01:16:04;7.85;;;2.20;;
13493;SDS011;6819;50.886;4.332;2023-08-21T01:18:31;4.70;;;1.83;;
13493;SDS011;6819;50.886;4.332;2023-08-21T01:21:01;5.60;;;2.13;;
13493;SDS011;6819;50.886;4.332;2023-08-21T01:23:29;5.95;;;2.00;;
13493;SDS011;6819;50.886;4.332;2023-08-21T01:25:55;6.60;;;1.92;;
13493;SDS011;6819;50.886;4.332;2023-08-21T01:28:21;4.07;;;1.70;;
13493;SDS011;6819;50.886;4.332;2023-08-21T01:30:48;4.32;;;1.50;;
13493;SDS011;6819;50.886;4.332;2023-08-21T01:33:16;3.83;;;1.85;;
13493;SDS011;6819;50.886;4.332;2023-08-21T01:35:42;4.53;;;2.03;;
13493;SDS011;6819;50.886;4.332;2023-08-21T01:38:09;7.88;;;2.15;;
13493;SDS011;6819;50.886;4.332;2023-08-21T01:40:35;5.63;;;2.33;;
13493;SDS011;6819;50.886;4.332;2023-08-21T01:43:01;9.82;;;2.20;;
13493;SDS011;6819;50.886;4.332;2023-08-21T01:45:27;6.35;;;2.10;;
13493;SDS011;6819;50.886;4.332;2023-08-21T01:47:53;7.30;;;2.22;;
13493;SDS011;6819;50.886;4.332;2023-08-21T01:50:19;7.90;;;1.90;;
13493;SDS011;6819;50.886;4.332;2023-08-21T01:52:45;4.40;;;1.80;;
13493;SDS011;6819;50.886;4.332;2023-08-21T01:55:11;8.57;;;2.05;;
13493;SDS011;6819;50.886;4.332;2023-08-21T01:57:37;5.70;;;2.13;;
13493;SDS011;6819;50.886;4.332;2023-08-21T02:00:03;8.35;;;2.35;;
13493;SDS011;6819;50.886;4.332;2023-08-21T02:02:30;5.47;;;1.63;;
13493;SDS011;6819;50.886;4.332;2023-08-21T02:04:56;6.38;;;1.83;;
13493;SDS011;6819;50.886;4.332;2023-08-21T02:07:22;7.28;;;2.25;;
13493;SDS011;6819;50.886;4.332;2023-08-21T02:09:48;7.38;;;2.03;;
13493;SDS011;6819;50.886;4.332;2023-08-21T02:12:14;7.75;;;2.08;;
13493;SDS011;6819;50.886;4.332;2023-08-21T02:14:40;10.75;;;2.33;;
13493;SDS011;6819;50.886;4.332;2023-08-21T02:17:06;8.38;;;2.20;;
13493;SDS011;6819;50.886;4.332;2023-08-21T02:19:32;5.55;;;1.92;;
13493;SDS011;6819;50.886;4.332;2023-08-21T02:21:58;6.97;;;2.35;;
13493;SDS011;6819;50.886;4.332;2023-08-21T02:24:24;4.97;;;1.70;;
13493;SDS011;6819;50.886;4.332;2023-08-21T02:26:50;5.32;;;1.98;;
13493;SDS011;6819;50.886;4.332;2023-08-21T02:29:16;6.60;;;1.92;;
13493;SDS011;6819;50.886;4.332;2023-08-21T02:31:42;6.57;;;2.30;;
13493;SDS011;6819;50.886;4.332;2023-08-21T02:34:08;4.65;;;1.83;;
13493;SDS011;6819;50.886;4.332;2023-08-21T02:36:34;8.52;;;2.20;;
13493;SDS011;6819;50.886;4.332;2023-08-21T02:39:00;5.90;;;1.80;;
13493;SDS011;6819;50.886;4.332;2023-08-21T02:41:26;7.63;;;2.00;;
13493;SDS011;6819;50.886;4.332;2023-08-21T02:43:52;7.15;;;2.15;;
13493;SDS011;6819;50.886;4.332;2023-08-21T02:46:18;9.70;;;2.40;;
13493;SDS011;6819;50.886;4.332;2023-08-21T02:48:44;8.15;;;2.15;;
13493;SDS011;6819;50.886;4.332;2023-08-21T02:51:10;13.32;;;2.67;;
13493;SDS011;6819;50.886;4.332;2023-08-21T02:53:36;6.32;;;2.03;;
13493;SDS011;6819;50.886;4.332;2023-08-21T02:56:02;9.77;;;2.55;;
13493;SDS011;6819;50.886;4.332;2023-08-21T02:58:28;8.85;;;2.42;;
13493;SDS011;6819;50.886;4.332;2023-08-21T03:00:54;13.90;;;3.08;;
13493;SDS011;6819;50.886;4.332;2023-08-21T03:03:20;9.40;;;2.30;;
13493;SDS011;6819;50.886;4.332;2023-08-21T03:05:46;8.80;;;2.42;;
13493;SDS011;6819;50.886;4.332;2023-08-21T03:08:12;4.25;;;2.03;;
13493;SDS011;6819;50.886;4.332;2023-08-21T03:10:38;9.18;;;2.63;;
13493;SDS011;6819;50.886;4.332;2023-08-21T03:13:04;6.28;;;2.22;;
13493;SDS011;6819;50.886;4.332;2023-08-21T03:15:30;3.75;;;1.85;;
13493;SDS011;6819;50.886;4.332;2023-08-21T03:17:56;7.65;;;2.20;;
13493;SDS011;6819;50.886;4.332;2023-08-21T03:20:22;6.50;;;2.28;;
13493;SDS011;6819;50.886;4.332;2023-08-21T03:22:48;11.57;;;2.15;;
13493;SDS011;6819;50.886;4.332;2023-08-21T03:25:14;6.00;;;2.15;;
13493;SDS011;6819;50.886;4.332;2023-08-21T03:27:40;10.40;;;2.42;;
13493;SDS011;6819;50.886;4.332;2023-08-21T03:30:09;6.60;;;2.03;;
13493;SDS011;6819;50.886;4.332;2023-08-21T03:32:35;13.75;;;2.95;;
13493;SDS011;6819;50.886;4.332;2023-08-21T03:35:01;6.38;;;2.22;;
13493;SDS011;6819;50.886;4.332;2023-08-21T03:37:28;10.35;;;2.40;;
13493;SDS011;6819;50.886;4.332;2023-08-21T03:39:54;6.82;;;2.08;;
13493;SDS011;6819;50.886;4.332;2023-08-21T03:42:20;7.95;;;2.00;;
13493;SDS011;6819;50.886;4.332;2023-08-21T03:44:46;7.72;;;2.90;;
13493;SDS011;6819;50.886;4.332;2023-08-21T03:47:15;5.65;;;2.50;;
13493;SDS011;6819;50.886;4.332;2023-08-21T03:49:41;9.18;;;2.25;;
13493;SDS011;6819;50.886;4.332;2023-08-21T03:52:07;7.55;;;2.15;;
13493;SDS011;6819;50.886;4.332;2023-08-21T03:54:33;8.15;;;2.70;;
13493;SDS011;6819;50.886;4.332;2023-08-21T03:56:59;8.73;;;2.60;;
13493;SDS011;6819;50.886;4.332;2023-08-21T03:59:25;8.43;;;2.20;;
13493;SDS011;6819;50.886;4.332;2023-08-21T04:01:52;7.35;;;2.42;;
13493;SDS011;6819;50.886;4.332;2023-08-21T04:04:18;7.72;;;2.50;;
13493;SDS011;6819;50.886;4.332;2023-08-21T04:06:44;9.90;;;2.85;;
13493;SDS011;6819;50.886;4.332;2023-08-21T04:09:10;7.28;;;2.42;;
13493;SDS011;6819;50.886;4.332;2023-08-21T04:11:36;11.27;;;2.83;;
13493;SDS011;6819;50.886;4.332;2023-08-21T04:14:03;7.95;;;2.83;;
13493;SDS011;6819;50.886;4.332;2023-08-21T04:16:29;10.07;;;3.08;;
13493;SDS011;6819;50.886;4.332;2023-08-21T04:18:56;8.40;;;2.83;;
13493;SDS011;6819;50.886;4.332;2023-08-21T04:21:22;7.50;;;2.65;;
13493;SDS011;6819;50.886;4.332;2023-08-21T04:23:48;10.00;;;3.03;;
13493;SDS011;6819;50.886;4.332;2023-08-21T04:26:14;6.80;;;2.50;;
13493;SDS011;6819;50.886;4.332;2023-08-21T04:28:40;10.88;;;2.80;;
13493;SDS011;6819;50.886;4.332;2023-08-21T04:31:07;5.60;;;2.50;;
13493;SDS011;6819;50.886;4.332;2023-08-21T04:33:33;11.73;;;2.97;;
13493;SDS011;6819;50.886;4.332;2023-08-21T04:36:00;8.00;;;3.28;;
13493;SDS011;6819;50.886;4.332;2023-08-21T04:38:26;16.08;;;3.50;;
13493;SDS011;6819;50.886;4.332;2023-08-21T04:40:52;8.20;;;3.45;;
13493;SDS011;6819;50.886;4.332;2023-08-21T04:43:18;9.10;;;2.60;;
13493;SDS011;6819;50.886;4.332;2023-08-21T04:45:48;10.02;;;2.97;;
13493;SDS011;6819;50.886;4.332;2023-08-21T04:48:15;8.88;;;2.67;;
13493;SDS011;6819;50.886;4.332;2023-08-21T04:50:41;10.52;;;2.65;;
13493;SDS011;6819;50.886;4.332;2023-08-21T04:53:07;10.40;;;2.90;;
13493;SDS011;6819;50.886;4.332;2023-08-21T04:55:33;13.20;;;3.08;;
13493;SDS011;6819;50.886;4.332;2023-08-21T04:57:59;8.45;;;2.42;;
13493;SDS011;6819;50.886;4.332;2023-08-21T05:00:25;7.68;;;2.60;;
13493;SDS011;6819;50.886;4.332;2023-08-21T05:02:51;8.93;;;2.22;;
13493;SDS011;6819;50.886;4.332;2023-08-21T05:05:17;5.25;;;2.33;;
13493;SDS011;6819;50.886;4.332;2023-08-21T05:07:43;6.45;;;2.60;;
13493;SDS011;6819;50.886;4.332;2023-08-21T05:10:09;5.28;;;2.40;;
13493;SDS011;6819;50.886;4.332;2023-08-21T05:12:35;8.32;;;2.70;;
13493;SDS011;6819;50.886;4.332;2023-08-21T05:15:01;8.68;;;2.70;;
13493;SDS011;6819;50.886;4.332;2023-08-21T05:17:27;8.60;;;2.70;;
13493;SDS011;6819;50.886;4.332;2023-08-21T05:19:54;7.93;;;2.63;;
13493;SDS011;6819;50.886;4.332;2023-08-21T05:22:20;7.20;;;2.35;;
13493;SDS011;6819;50.886;4.332;2023-08-21T05:24:46;10.65;;;2.47;;
13493;SDS011;6819;50.886;4.332;2023-08-21T05:27:12;11.55;;;2.50;;
13493;SDS011;6819;50.886;4.332;2023-08-21T05:29:38;8.88;;;2.97;;
13493;SDS011;6819;50.886;4.332;2023-08-21T05:32:04;7.35;;;2.38;;
13493;SDS011;6819;50.886;4.332;2023-08-21T05:34:31;8.95;;;2.58;;
13493;SDS011;6819;50.886;4.332;2023-08-21T05:36:57;8.95;;;2.53;;
13493;SDS011;6819;50.886;4.332;2023-08-21T05:39:23;7.50;;;2.30;;
13493;SDS011;6819;50.886;4.332;2023-08-21T05:41:49;8.55;;;2.60;;
13493;SDS011;6819;50.886;4.332;2023-08-21T05:44:15;9.38;;;2.83;;
13493;SDS011;6819;50.886;4.332;2023-08-21T05:46:41;9.02;;;2.65;;
13493;SDS011;6819;50.886;4.332;2023-08-21T05:49:07;9.15;;;2.65;;
13493;SDS011;6819;50.886;4.332;2023-08-21T05:51:33;8.40;;;3.00;;
13493;SDS011;6819;50.886;4.332;2023-08-21T05:53:59;9.40;;;3.13;;
13493;SDS011;6819;50.886;4.332;2023-08-21T05:56:25;7.82;;;3.13;;
13493;SDS011;6819;50.886;4.332;2023-08-21T05:58:51;8.55;;;2.80;;
13493;SDS011;6819;50.886;4.332;2023-08-21T06:01:17;5.95;;;2.47;;
13493;SDS011;6819;50.886;4.332;2023-08-21T06:03:43;6.50;;;2.83;;
13493;SDS011;6819;50.886;4.332;2023-08-21T06:06:09;6.75;;;2.90;;
13493;SDS011;6819;50.886;4.332;2023-08-21T06:08:35;17.17;;;3.80;;
13493;SDS011;6819;50.886;4.332;2023-08-21T06:11:01;9.82;;;3.40;;
13493;SDS011;6819;50.886;4.332;2023-08-21T06:13:27;8.43;;;3.22;;
13493;SDS011;6819;50.886;4.332;2023-08-21T06:15:53;8.90;;;3.05;;
13493;SDS011;6819;50.886;4.332;2023-08-21T06:18:19;13.65;;;3.60;;
13493;SDS011;6819;50.886;4.332;2023-08-21T06:20:46;7.68;;;2.75;;
13493;SDS011;6819;50.886;4.332;2023-08-21T06:23:12;13.48;;;3.45;;
13493;SDS011;6819;50.886;4.332;2023-08-21T06:25:38;11.52;;;3.30;;
13493;SDS011;6819;50.886;4.332;2023-08-21T06:28:04;9.80;;;3.20;;
13493;SDS011;6819;50.886;4.332;2023-08-21T06:30:30;14.93;;;3.70;;
13493;SDS011;6819;50.886;4.332;2023-08-21T06:32:56;10.10;;;3.53;;
13493;SDS011;6819;50.886;4.332;2023-08-21T06:35:22;11.35;;;3.92;;
13493;SDS011;6819;50.886;4.332;2023-08-21T06:37:48;8.43;;;3.35;;
13493;SDS011;6819;50.886;4.332;2023-08-21T06:40:14;8.18;;;3.60;;
13493;SDS011;6819;50.886;4.332;2023-08-21T06:42:40;14.75;;;3.88;;
13493;SDS011;6819;50.886;4.332;2023-08-21T06:45:07;12.80;;;3.42;;
13493;SDS011;6819;50.886;4.332;2023-08-21T06:47:33;11.35;;;3.78;;
13493;SDS011;6819;50.886;4.332;2023-08-21T06:49:59;12.70;;;3.53;;
13493;SDS011;6819;50.886;4.332;2023-08-21T06:52:28;10.10;;;3.42;;
13493;SDS011;6819;50.886;4.332;2023-08-21T06:54:54;10.90;;;3.20;;
13493;SDS011;6819;50.886;4.332;2023-08-21T06:57:20;12.65;;;3.22;;
13493;SDS011;6819;50.886;4.332;2023-08-21T06:59:46;11.80;;;3.28;;
13493;SDS011;6819;50.886;4.332;2023-08-21T07:02:12;15.07;;;3.92;;
13493;SDS011;6819;50.886;4.332;2023-08-21T07:04:38;7.57;;;3.20;;
13493;SDS011;6819;50.886;4.332;2023-08-21T07:07:04;12.02;;;3.45;;
13493;SDS011;6819;50.886;4.332;2023-08-21T07:09:30;13.07;;;3.60;;
13493;SDS011;6819;50.886;4.332;2023-08-21T07:11:56;9.93;;;3.58;;
13493;SDS011;6819;50.886;4.332;2023-08-21T07:14:22;11.75;;;3.78;;
13493;SDS011;6819;50.886;4.332;2023-08-21T07:16:48;14.25;;;3.85;;
13493;SDS011;6819;50.886;4.332;2023-08-21T07:19:14;11.38;;;3.50;;
13493;SDS011;6819;50.886;4.332;2023-08-21T07:21:40;9.98;;;3.47;;
13493;SDS011;6819;50.886;4.332;2023-08-21T07:24:06;14.57;;;3.88;;
13493;SDS011;6819;50.886;4.332;2023-08-21T07:26:32;9.52;;;3.80;;
13493;SDS011;6819;50.886;4.332;2023-08-21T07:28:58;14.18;;;3.40;;
13493;SDS011;6819;50.886;4.332;2023-08-21T07:31:24;12.88;;;3.10;;
13493;SDS011;6819;50.886;4.332;2023-08-21T07:33:50;10.15;;;3.30;;
13493;SDS011;6819;50.886;4.332;2023-08-21T07:36:16;10.77;;;3.63;;
13493;SDS011;6819;50.886;4.332;2023-08-21T07:38:45;11.05;;;3.90;;
13493;SDS011;6819;50.886;4.332;2023-08-21T07:41:12;13.10;;;3.85;;
13493;SDS011;6819;50.886;4.332;2023-08-21T07:43:41;13.95;;;3.92;;
13493;SDS011;6819;50.886;4.332;2023-08-21T07:46:08;14.02;;;4.38;;
13493;SDS011;6819;50.886;4.332;2023-08-21T07:48:37;11.07;;;3.42;;
13493;SDS011;6819;50.886;4.332;2023-08-21T07:51:03;13.23;;;4.18;;
13493;SDS011;6819;50.886;4.332;2023-08-21T07:53:29;15.57;;;3.78;;
13493;SDS011;6819;50.886;4.332;2023-08-21T07:55:56;14.68;;;4.07;;
13493;SDS011;6819;50.886;4.332;2023-08-21T07:58:22;13.65;;;4.47;;
13493;SDS011;6819;50.886;4.332;2023-08-21T08:00:48;13.20;;;4.60;;
13493;SDS011;6819;50.886;4.332;2023-08-21T08:03:14;17.73;;;4.72;;
13493;SDS011;6819;50.886;4.332;2023-08-21T08:05:41;15.77;;;4.78;;
13493;SDS011;6819;50.886;4.332;2023-08-21T08:08:07;16.20;;;5.55;;
13493;SDS011;6819;50.886;4.332;2023-08-21T08:10:36;16.60;;;4.90;;
13493;SDS011;6819;50.886;4.332;2023-08-21T08:13:02;16.23;;;5.65;;
13493;SDS011;6819;50.886;4.332;2023-08-21T08:15:28;16.65;;;5.50;;
13493;SDS011;6819;50.886;4.332;2023-08-21T08:17:54;17.90;;;5.63;;
13493;SDS011;6819;50.886;4.332;2023-08-21T08:20:20;18.35;;;6.10;;
13493;SDS011;6819;50.886;4.332;2023-08-21T08:22:46;15.23;;;5.38;;
13493;SDS011;6819;50.886;4.332;2023-08-21T08:25:14;13.60;;;5.45;;
13493;SDS011;6819;50.886;4.332;2023-08-21T08:27:40;15.40;;;5.80;;
13493;SDS011;6819;50.886;4.332;2023-08-21T08:30:06;20.75;;;7.05;;
13493;SDS011;6819;50.886;4.332;2023-08-21T08:32:33;16.45;;;7.22;;
13493;SDS011;6819;50.886;4.332;2023-08-21T08:35:00;17.98;;;6.32;;
13493;SDS011;6819;50.886;4.332;2023-08-21T08:37:26;17.88;;;7.05;;
13493;SDS011;6819;50.886;4.332;2023-08-21T08:39:52;15.10;;;6.70;;
13493;SDS011;6819;50.886;4.332;2023-08-21T08:42:18;13.32;;;5.57;;
13493;SDS011;6819;50.886;4.332;2023-08-21T08:44:44;10.63;;;4.25;;
13493;SDS011;6819;50.886;4.332;2023-08-21T08:47:10;12.55;;;4.07;;
13493;SDS011;6819;50.886;4.332;2023-08-21T08:49:37;12.32;;;4.40;;
13493;SDS011;6819;50.886;4.332;2023-08-21T08:52:03;13.30;;;4.90;;
13493;SDS011;6819;50.886;4.332;2023-08-21T08:54:30;15.55;;;5.70;;
13493;SDS011;6819;50.886;4.332;2023-08-21T08:56:56;21.38;;;4.57;;
13493;SDS011;6819;50.886;4.332;2023-08-21T08:59:22;13.15;;;4.53;;
13493;SDS011;6819;50.886;4.332;2023-08-21T09:01:48;16.92;;;4.40;;
13493;SDS011;6819;50.886;4.332;2023-08-21T09:04:15;11.13;;;4.95;;
13493;SDS011;6819;50.886;4.332;2023-08-21T09:06:41;15.35;;;5.10;;
13493;SDS011;6819;50.886;4.332;2023-08-21T09:09:07;16.08;;;4.43;;
13493;SDS011;6819;50.886;4.332;2023-08-21T09:11:35;10.73;;;3.63;;
13493;SDS011;6819;50.886;4.332;2023-08-21T09:14:02;8.02;;;2.50;;
13493;SDS011;6819;50.886;4.332;2023-08-21T09:16:28;8.25;;;2.72;;
13493;SDS011;6819;50.886;4.332;2023-08-21T09:18:57;8.40;;;2.88;;
13493;SDS011;6819;50.886;4.332;2023-08-21T09:21:23;12.00;;;2.85;;
13493;SDS011;6819;50.886;4.332;2023-08-21T09:23:55;9.85;;;2.72;;
13493;SDS011;6819;50.886;4.332;2023-08-21T09:26:22;10.23;;;2.75;;
13493;SDS011;6819;50.886;4.332;2023-08-21T09:28:49;7.45;;;2.40;;
13493;SDS011;6819;50.886;4.332;2023-08-21T09:31:16;4.50;;;1.80;;
13493;SDS011;6819;50.886;4.332;2023-08-21T09:33:42;5.35;;;1.50;;
13493;SDS011;6819;50.886;4.332;2023-08-21T09:36:09;6.00;;;1.70;;
13493;SDS011;6819;50.886;4.332;2023-08-21T09:38:37;5.20;;;1.50;;
13493;SDS011;6819;50.886;4.332;2023-08-21T09:41:04;7.68;;;1.92;;
13493;SDS011;6819;50.886;4.332;2023-08-21T09:43:30;5.18;;;1.83;;
13493;SDS011;6819;50.886;4.332;2023-08-21T09:45:56;6.38;;;1.73;;
13493;SDS011;6819;50.886;4.332;2023-08-21T09:48:23;7.72;;;2.13;;
13493;SDS011;6819;50.886;4.332;2023-08-21T09:50:50;5.65;;;1.80;;
13493;SDS011;6819;50.886;4.332;2023-08-21T09:53:16;6.80;;;2.40;;
13493;SDS011;6819;50.886;4.332;2023-08-21T09:55:42;8.10;;;3.08;;
13493;SDS011;6819;50.886;4.332;2023-08-21T09:58:08;11.48;;;3.42;;
13493;SDS011;6819;50.886;4.332;2023-08-21T10:00:36;9.85;;;2.70;;
13493;SDS011;6819;50.886;4.332;2023-08-21T10:03:06;5.75;;;2.05;;
13493;SDS011;6819;50.886;4.332;2023-08-21T10:05:36;6.50;;;1.60;;
13493;SDS011;6819;50.886;4.332;2023-08-21T10:08:03;6.13;;;1.90;;
13493;SDS011;6819;50.886;4.332;2023-08-21T10:10:33;6.35;;;2.25;;
13493;SDS011;6819;50.886;4.332;2023-08-21T10:13:00;7.25;;;2.10;;
13493;SDS011;6819;50.886;4.332;2023-08-21T10:15:29;7.65;;;1.73;;
13493;SDS011;6819;50.886;4.332;2023-08-21T10:17:55;4.78;;;1.95;;
13493;SDS011;6819;50.886;4.332;2023-08-21T10:20:22;7.22;;;1.63;;
13493;SDS011;6819;50.886;4.332;2023-08-21T10:22:49;5.88;;;1.60;;
13493;SDS011;6819;50.886;4.332;2023-08-21T10:25:22;5.47;;;1.40;;
13493;SDS011;6819;50.886;4.332;2023-08-21T10:27:52;3.40;;;1.60;;
13493;SDS011;6819;50.886;4.332;2023-08-21T10:30:22;2.63;;;1.25;;
13493;SDS011;6819;50.886;4.332;2023-08-21T10:32:49;2.17;;;1.35;;
13493;SDS011;6819;50.886;4.332;2023-08-21T10:35:17;3.38;;;1.63;;
13493;SDS011;6819;50.886;4.332;2023-08-21T10:40:28;5.90;;;1.88;;
13493;SDS011;6819;50.886;4.332;2023-08-21T10:42:55;6.30;;;1.40;;
13493;SDS011;6819;50.886;4.332;2023-08-21T10:45:21;4.22;;;1.30;;
13493;SDS011;6819;50.886;4.332;2023-08-21T10:47:47;3.90;;;1.40;;
13493;SDS011;6819;50.886;4.332;2023-08-21T10:50:15;2.65;;;1.40;;
13493;SDS011;6819;50.886;4.332;2023-08-21T10:52:42;4.72;;;1.30;;
13493;SDS011;6819;50.886;4.332;2023-08-21T10:55:10;3.80;;;1.42;;
13493;SDS011;6819;50.886;4.332;2023-08-21T10:57:36;2.50;;;1.48;;
13493;SDS011;6819;50.886;4.332;2023-08-21T11:02:29;2.95;;;1.30;;
13493;SDS011;6819;50.886;4.332;2023-08-21T11:04:55;5.75;;;1.58;;
13493;SDS011;6819;50.886;4.332;2023-08-21T11:07:22;3.45;;;1.70;;
13493;SDS011;6819;50.886;4.332;2023-08-21T11:09:48;5.10;;;1.48;;
13493;SDS011;6819;50.886;4.332;2023-08-21T11:12:15;3.97;;;1.50;;
13493;SDS011;6819;50.886;4.332;2023-08-21T11:14:42;4.13;;;2.00;;
13493;SDS011;6819;50.886;4.332;2023-08-21T11:17:08;4.25;;;1.80;;
13493;SDS011;6819;50.886;4.332;2023-08-21T11:19:35;5.95;;;2.08;;
13493;SDS011;6819;50.886;4.332;2023-08-21T11:22:01;6.30;;;1.73;;
13493;SDS011;6819;50.886;4.332;2023-08-21T11:24:30;5.22;;;1.85;;
13493;SDS011;6819;50.886;4.332;2023-08-21T11:26:57;4.18;;;1.70;;
13493;SDS011;6819;50.886;4.332;2023-08-21T11:29:23;4.10;;;1.70;;
13493;SDS011;6819;50.886;4.332;2023-08-21T11:31:50;4.63;;;1.67;;
13493;SDS011;6819;50.886;4.332;2023-08-21T11:34:21;6.13;;;1.77;;
13493;SDS011;6819;50.886;4.332;2023-08-21T11:36:47;3.45;;;1.88;;
13493;SDS011;6819;50.886;4.332;2023-08-21T11:39:13;5.47;;;1.98;;
13493;SDS011;6819;50.886;4.332;2023-08-21T11:41:55;4.13;;;1.98;;
13493;SDS011;6819;50.886;4.332;2023-08-21T11:44:22;6.70;;;1.70;;
13493;SDS011;6819;50.886;4.332;2023-08-21T11:46:50;3.80;;;1.63;;
13493;SDS011;6819;50.886;4.332;2023-08-21T11:49:18;5.93;;;2.00;;
13493;SDS011;6819;50.886;4.332;2023-08-21T11:51:45;4.55;;;1.80;;
13493;SDS011;6819;50.886;4.332;2023-08-21T11:54:11;6.40;;;1.83;;
13493;SDS011;6819;50.886;4.332;2023-08-21T11:56:38;3.10;;;1.70;;
13493;SDS011;6819;50.886;4.332;2023-08-21T11:59:04;4.05;;;1.42;;
13493;SDS011;6819;50.886;4.332;2023-08-21T12:01:33;4.32;;;2.17;;
13493;SDS011;6819;50.886;4.332;2023-08-21T12:03:59;10.23;;;2.03;;
13493;SDS011;6819;50.886;4.332;2023-08-21T12:06:25;5.00;;;1.80;;
13493;SDS011;6819;50.886;4.332;2023-08-21T12:08:53;5.18;;;1.65;;
13493;SDS011;6819;50.886;4.332;2023-08-21T12:11:20;3.35;;;1.88;;
13493;SDS011;6819;50.886;4.332;2023-08-21T12:13:46;7.28;;;1.80;;
13493;SDS011;6819;50.886;4.332;2023-08-21T12:16:12;7.95;;;2.13;;
13493;SDS011;6819;50.886;4.332;2023-08-21T12:18:38;4.85;;;1.98;;
13493;SDS011;6819;50.886;4.332;2023-08-21T12:21:04;9.73;;;2.08;;
13493;SDS011;6819;50.886;4.332;2023-08-21T12:23:32;8.10;;;2.00;;
13493;SDS011;6819;50.886;4.332;2023-08-21T12:25:59;3.28;;;1.60;;
13493;SDS011;6819;50.886;4.332;2023-08-21T12:28:25;8.48;;;1.83;;
13493;SDS011;6819;50.886;4.332;2023-08-21T12:30:51;6.47;;;2.00;;
13493;SDS011;6819;50.886;4.332;2023-08-21T12:33:17;6.18;;;1.85;;
13493;SDS011;6819;50.886;4.332;2023-08-21T12:35:43;3.30;;;1.90;;
13493;SDS011;6819;50.886;4.332;2023-08-21T12:38:12;4.82;;;1.77;;
13493;SDS011;6819;50.886;4.332;2023-08-21T12:40:39;5.35;;;2.17;;
13493;SDS011;6819;50.886;4.332;2023-08-21T12:43:05;4.57;;;1.73;;
13493;SDS011;6819;50.886;4.332;2023-08-21T12:45:31;6.07;;;2.45;;
13493;SDS011;6819;50.886;4.332;2023-08-21T12:47:57;7.13;;;1.98;;
13493;SDS011;6819;50.886;4.332;2023-08-21T12:50:23;4.50;;;2.10;;
13493;SDS011;6819;50.886;4.332;2023-08-21T12:52:49;4.10;;;2.00;;
13493;SDS011;6819;50.886;4.332;2023-08-21T12:55:15;5.57;;;2.00;;
13493;SDS011;6819;50.886;4.332;2023-08-21T12:57:41;4.97;;;1.70;;
13493;SDS011;6819;50.886;4.332;2023-08-21T13:00:07;6.45;;;1.95;;
13493;SDS011;6819;50.886;4.332;2023-08-21T13:02:33;2.55;;;1.80;;
13493;SDS011;6819;50.886;4.332;2023-08-21T13:04:59;3.90;;;1.75;;
13493;SDS011;6819;50.886;4.332;2023-08-21T13:07:25;3.25;;;1.83;;
13493;SDS011;6819;50.886;4.332;2023-08-21T13:09:51;5.13;;;2.42;;
13493;SDS011;6819;50.886;4.332;2023-08-21T13:12:17;2.67;;;1.80;;
13493;SDS011;6819;50.886;4.332;2023-08-21T13:14:43;2.53;;;1.60;;
13493;SDS011;6819;50.886;4.332;2023-08-21T13:17:11;5.30;;;1.88;;
13493;SDS011;6819;50.886;4.332;2023-08-21T13:19:37;3.63;;;1.50;;
13493;SDS011;6819;50.886;4.332;2023-08-21T13:22:03;3.65;;;1.60;;
13493;SDS011;6819;50.886;4.332;2023-08-21T13:24:29;1.77;;;1.30;;
13493;SDS011;6819;50.886;4.332;2023-08-21T13:26:55;3.35;;;1.60;;
13493;SDS011;6819;50.886;4.332;2023-08-21T13:29:21;5.32;;;1.88;;
13493;SDS011;6819;50.886;4.332;2023-08-21T13:31:48;3.38;;;1.52;;
13493;SDS011;6819;50.886;4.332;2023-08-21T13:34:14;4.18;;;1.73;;
13493;SDS011;6819;50.886;4.332;2023-08-21T13:36:40;3.22;;;1.55;;
13493;SDS011;6819;50.886;4.332;2023-08-21T13:39:06;5.97;;;2.22;;
13493;SDS011;6819;50.886;4.332;2023-08-21T13:41:33;3.67;;;1.42;;
13493;SDS011;6819;50.886;4.332;2023-08-21T13:43:59;3.05;;;1.45;;
13493;SDS011;6819;50.886;4.332;2023-08-21T13:46:25;4.10;;;1.50;;
13493;SDS011;6819;50.886;4.332;2023-08-21T13:48:51;3.78;;;1.40;;
13493;SDS011;6819;50.886;4.332;2023-08-21T13:51:17;5.82;;;1.80;;
13493;SDS011;6819;50.886;4.332;2023-08-21T13:53:43;4.97;;;1.60;;
13493;SDS011;6819;50.886;4.332;2023-08-21T13:56:10;2.00;;;1.45;;
13493;SDS011;6819;50.886;4.332;2023-08-21T13:58:36;2.08;;;1.42;;
13493;SDS011;6819;50.886;4.332;2023-08-21T14:01:02;3.13;;;1.60;;
13493;SDS011;6819;50.886;4.332;2023-08-21T14:03:28;3.85;;;1.75;;
13493;SDS011;6819;50.886;4.332;2023-08-21T14:05:54;4.72;;;1.33;;
13493;SDS011;6819;50.886;4.332;2023-08-21T14:08:20;4.88;;;2.03;;
13493;SDS011;6819;50.886;4.332;2023-08-21T14:10:46;4.25;;;1.70;;
13493;SDS011;6819;50.886;4.332;2023-08-21T14:13:12;2.88;;;1.50;;
13493;SDS011;6819;50.886;4.332;2023-08-21T14:15:38;6.25;;;1.73;;
13493;SDS011;6819;50.886;4.332;2023-08-21T14:18:04;2.83;;;1.30;;
13493;SDS011;6819;50.886;4.332;2023-08-21T14:20:30;9.35;;;1.63;;
13493;SDS011;6819;50.886;4.332;2023-08-21T14:22:56;2.65;;;1.40;;
13493;SDS011;6819;50.886;4.332;2023-08-21T14:25:22;5.93;;;1.45;;
13493;SDS011;6819;50.886;4.332;2023-08-21T14:27:49;2.45;;;1.30;;
13493;SDS011;6819;50.886;4.332;2023-08-21T14:30:15;1.35;;;1.10;;
13493;SDS011;6819;50.886;4.332;2023-08-21T14:32:41;1.85;;;1.23;;
13493;SDS011;6819;50.886;4.332;2023-08-21T14:35:08;1.55;;;1.25;;
13493;SDS011;6819;50.886;4.332;2023-08-21T14:37:34;6.43;;;1.40;;
13493;SDS011;6819;50.886;4.332;2023-08-21T14:40:00;2.85;;;1.50;;
13493;SDS011;6819;50.886;4.332;2023-08-21T14:42:32;3.78;;;1.38;;
13493;SDS011;6819;50.886;4.332;2023-08-21T14:44:58;2.90;;;1.42;;
13493;SDS011;6819;50.886;4.332;2023-08-21T14:47:24;4.35;;;1.58;;
13493;SDS011;6819;50.886;4.332;2023-08-21T14:49:50;1.88;;;1.38;;
13493;SDS011;6819;50.886;4.332;2023-08-21T14:52:16;3.35;;;1.33;;
13493;SDS011;6819;50.886;4.332;2023-08-21T14:54:42;1.95;;;1.20;;
13493;SDS011;6819;50.886;4.332;2023-08-21T14:57:08;2.33;;;1.23;;
13493;SDS011;6819;50.886;4.332;2023-08-21T14:59:34;2.70;;;1.50;;
13493;SDS011;6819;50.886;4.332;2023-08-21T15:02:00;2.03;;;1.30;;